createdAt,value
2018-03-22T00:01:25.457Z,14.33
2018-03-22T00:03:53.055Z,13.77
2018-03-22T00:06:20.621Z,14.50
2018-03-22T00:08:48.187Z,14.53
2018-03-22T00:11:15.768Z,15.37
2018-03-22T00:13:43.336Z,14.60
2018-03-22T00:16:11.687Z,14.73
2018-03-22T00:18:39.261Z,15.10
2018-03-22T00:21:06.991Z,14.07
2018-03-22T00:23:34.545Z,14.53
2018-03-22T00:26:02.115Z,15.63
2018-03-22T00:28:29.669Z,14.30
2018-03-22T00:30:57.252Z,15.23
2018-03-22T00:33:24.821Z,14.53
2018-03-22T00:35:52.388Z,15.83
2018-03-22T00:38:20.760Z,15.53
2018-03-22T00:40:48.343Z,14.97
2018-03-22T00:43:16.681Z,14.90
2018-03-22T00:45:44.245Z,15.50
2018-03-22T00:48:11.818Z,15.63
2018-03-22T00:50:39.484Z,15.57
2018-03-22T00:53:07.129Z,15.37
2018-03-22T00:55:34.704Z,15.20
2018-03-22T00:58:02.370Z,15.30
2018-03-22T01:00:29.939Z,14.70
2018-03-22T01:02:57.522Z,15.73
2018-03-22T01:05:25.946Z,15.40
2018-03-22T01:07:53.486Z,14.87
2018-03-22T01:10:21.067Z,16.00
2018-03-22T01:12:48.613Z,15.57
2018-03-22T01:15:16.160Z,15.00
2018-03-22T01:17:44.500Z,15.87
2018-03-22T01:20:12.066Z,15.70
2018-03-22T01:22:39.687Z,14.60
2018-03-22T01:25:07.375Z,15.50
2018-03-22T01:27:34.929Z,16.07
2018-03-22T01:30:03.567Z,16.13
2018-03-22T01:32:31.908Z,16.27
2018-03-22T01:34:59.456Z,15.67
2018-03-22T01:37:27.027Z,16.57
2018-03-22T01:39:54.678Z,16.53
2018-03-22T01:42:22.242Z,15.73
2018-03-22T01:44:49.815Z,15.47
2018-03-22T01:47:17.397Z,16.10
2018-03-22T01:49:44.943Z,14.77
2018-03-22T01:52:12.896Z,15.33
2018-03-22T01:54:40.465Z,14.80
2018-03-22T01:57:08.023Z,15.80
2018-03-22T01:59:35.570Z,14.73
2018-03-22T02:02:03.168Z,15.47
2018-03-22T02:04:31.500Z,16.53
2018-03-22T02:06:59.044Z,14.90
2018-03-22T02:09:26.716Z,16.03
2018-03-22T02:11:54.272Z,15.93
2018-03-22T02:14:21.898Z,16.13
2018-03-22T02:16:49.466Z,15.27
2018-03-22T02:19:17.785Z,16.03
2018-03-22T02:21:45.321Z,15.30
2018-03-22T02:24:13.749Z,15.87
2018-03-22T02:26:41.322Z,16.30
2018-03-22T02:29:08.874Z,16.13
2018-03-22T02:31:36.472Z,16.60
2018-03-22T02:34:04.091Z,15.73
2018-03-22T02:36:31.657Z,15.57
2018-03-22T02:38:59.263Z,16.03
2018-03-22T02:41:27.780Z,17.23
2018-03-22T02:43:55.338Z,16.37
2018-03-22T02:46:22.921Z,15.77
2018-03-22T02:48:50.465Z,16.10
2018-03-22T02:51:18.053Z,16.07
2018-03-22T02:53:45.726Z,16.53
2018-03-22T02:56:14.788Z,16.13
2018-03-22T02:58:42.349Z,16.97
2018-03-22T03:01:09.924Z,16.27
2018-03-22T03:03:37.483Z,16.03
2018-03-22T03:06:05.033Z,15.50
2018-03-22T03:08:32.610Z,17.23
2018-03-22T03:11:00.276Z,16.40
2018-03-22T03:13:27.844Z,16.17
2018-03-22T03:15:55.418Z,16.03
2018-03-22T03:18:22.974Z,16.63
2018-03-22T03:20:50.514Z,16.43
2018-03-22T03:23:18.092Z,16.37
2018-03-22T03:25:45.629Z,16.13
2018-03-22T03:28:13.187Z,17.80
2018-03-22T03:30:40.757Z,17.67
2018-03-22T03:33:08.404Z,15.27
2018-03-22T03:35:35.978Z,16.00
2018-03-22T03:38:03.543Z,16.77
2018-03-22T03:40:31.116Z,16.47
2018-03-22T03:42:58.660Z,16.13
2018-03-22T03:45:26.239Z,16.07
2018-03-22T03:47:53.895Z,15.83
2018-03-22T03:50:21.561Z,16.10
2018-03-22T03:52:49.123Z,16.13
2018-03-22T03:55:16.679Z,17.10
2018-03-22T03:57:44.229Z,16.07
2018-03-22T04:00:11.914Z,15.37
2018-03-22T04:02:39.571Z,15.77
2018-03-22T04:05:07.226Z,16.50
2018-03-22T04:07:34.796Z,16.10
2018-03-22T04:10:02.350Z,15.50
2018-03-22T04:12:29.902Z,15.67
2018-03-22T04:14:57.476Z,15.83
2018-03-22T04:17:25.132Z,14.90
2018-03-22T04:19:52.782Z,16.77
2018-03-22T04:22:20.342Z,16.43
2018-03-22T04:24:47.884Z,15.27
2018-03-22T04:27:15.442Z,15.67
2018-03-22T04:29:43.018Z,15.87
2018-03-22T04:32:10.580Z,15.60
2018-03-22T04:34:38.138Z,17.27
2018-03-22T04:37:05.691Z,15.77
2018-03-22T04:39:33.279Z,15.97
2018-03-22T04:42:00.841Z,15.43
2018-03-22T04:44:28.423Z,14.83
2018-03-22T04:46:55.967Z,16.20
2018-03-22T04:49:23.524Z,15.77
2018-03-22T04:51:51.181Z,15.40
2018-03-22T04:54:18.730Z,15.73
2018-03-22T04:56:46.299Z,16.63
2018-03-22T04:59:14.021Z,16.17
2018-03-22T05:01:41.568Z,16.13
2018-03-22T05:04:09.887Z,17.27
2018-03-22T05:06:37.463Z,17.67
2018-03-22T05:09:05.036Z,17.67
2018-03-22T05:11:32.586Z,17.33
2018-03-22T05:14:00.238Z,19.50
2018-03-22T05:16:27.817Z,18.93
2018-03-22T05:18:55.363Z,16.73
2018-03-22T05:21:23.050Z,19.20
2018-03-22T05:23:51.428Z,17.87
2018-03-22T05:26:19.090Z,18.87
2018-03-22T05:28:46.647Z,19.00
2018-03-22T05:31:14.213Z,20.77
2018-03-22T05:33:41.860Z,20.67
2018-03-22T05:36:09.449Z,21.10
2018-03-22T05:38:37.032Z,19.60
2018-03-22T05:41:05.346Z,22.83
2018-03-22T05:43:32.929Z,24.13
2018-03-22T05:46:00.477Z,23.20
2018-03-22T05:48:28.017Z,24.00
2018-03-22T05:50:55.602Z,24.77
2018-03-22T05:53:23.180Z,23.47
2018-03-22T05:55:50.722Z,23.93
2018-03-22T05:58:18.284Z,25.30
2018-03-22T06:00:45.841Z,23.03
2018-03-22T06:03:13.393Z,24.07
2018-03-22T06:05:41.006Z,24.47
2018-03-22T06:08:08.637Z,24.43
2018-03-22T06:10:36.203Z,24.00
2018-03-22T06:13:03.782Z,24.90
2018-03-22T06:15:31.335Z,23.83
2018-03-22T06:17:58.878Z,24.20
2018-03-22T06:20:26.455Z,25.47
2018-03-22T06:22:54.006Z,23.90
2018-03-22T06:25:21.591Z,24.27
2018-03-22T06:27:49.167Z,24.30
2018-03-22T06:30:16.724Z,24.73
2018-03-22T06:32:44.367Z,24.03
2018-03-22T06:35:11.967Z,24.30
2018-03-22T06:37:40.300Z,25.00
2018-03-22T06:40:07.973Z,25.60
2018-03-22T06:42:35.559Z,25.57
2018-03-22T06:45:03.981Z,26.70
2018-03-22T06:47:31.554Z,27.77
2018-03-22T06:49:59.116Z,28.67
2018-03-22T06:52:26.680Z,29.57
2018-03-22T06:54:54.222Z,28.83
2018-03-22T06:57:21.799Z,28.47
2018-03-22T06:59:49.362Z,29.67
2018-03-22T07:02:17.025Z,30.03
2018-03-22T07:04:44.712Z,28.67
2018-03-22T07:07:12.258Z,30.73
2018-03-22T07:09:39.809Z,31.63
2018-03-22T07:12:07.479Z,29.47
2018-03-22T07:14:35.166Z,30.67
2018-03-22T07:17:02.680Z,29.70
2018-03-22T07:19:30.367Z,29.83
2018-03-22T07:21:57.923Z,32.13
2018-03-22T07:24:25.586Z,33.97
2018-03-22T07:26:53.155Z,31.77
2018-03-22T07:29:20.733Z,32.80
2018-03-22T07:31:48.298Z,33.97
2018-03-22T07:34:15.943Z,33.17
2018-03-22T07:36:43.489Z,31.60
2018-03-22T07:39:40.229Z,30.93
2018-03-22T07:42:08.736Z,33.10
2018-03-22T07:44:41.263Z,31.03
2018-03-22T07:47:08.820Z,30.83
2018-03-22T07:49:36.442Z,29.43
2018-03-22T07:52:04.013Z,29.83
2018-03-22T07:54:32.323Z,30.40
2018-03-22T07:56:59.885Z,30.77
2018-03-22T07:59:27.449Z,30.00
2018-03-22T08:01:55.121Z,30.83
2018-03-22T08:04:22.714Z,30.27
2018-03-22T08:06:50.372Z,27.67
2018-03-22T08:09:17.921Z,28.10
2018-03-22T08:11:45.465Z,26.73
2018-03-22T08:14:13.033Z,27.10
2018-03-22T08:16:40.598Z,26.43
2018-03-22T08:19:08.156Z,27.83
2018-03-22T08:21:35.748Z,26.27
2018-03-22T08:24:04.188Z,27.57
2018-03-22T08:26:31.744Z,27.73
2018-03-22T08:28:59.323Z,27.13
2018-03-22T08:31:26.879Z,26.77
2018-03-22T08:33:54.417Z,27.77
2018-03-22T08:36:22.016Z,25.67
2018-03-22T08:38:49.561Z,27.37
2018-03-22T08:41:17.189Z,27.70
2018-03-22T08:43:44.755Z,26.80
2018-03-22T08:46:13.063Z,27.33
2018-03-22T08:48:42.061Z,26.20
2018-03-22T08:51:09.630Z,27.43
2018-03-22T08:53:37.171Z,25.07
2018-03-22T08:56:04.743Z,26.00
2018-03-22T08:58:32.308Z,22.13
2018-03-22T09:00:59.863Z,23.40
2018-03-22T09:03:30.175Z,26.33
2018-03-22T09:05:57.880Z,25.17
2018-03-22T09:08:25.539Z,27.53
2018-03-22T09:10:53.180Z,27.90
2018-03-22T09:13:20.785Z,23.60
2018-03-22T09:15:48.437Z,24.30
2018-03-22T09:18:15.996Z,23.90
2018-03-22T09:20:43.645Z,22.33
2018-03-22T09:23:11.177Z,21.10
2018-03-22T09:25:38.770Z,22.17
2018-03-22T09:28:06.432Z,21.40
2018-03-22T09:30:34.087Z,20.30
2018-03-22T09:33:01.647Z,18.50
2018-03-22T09:35:29.209Z,23.83
2018-03-22T09:37:56.746Z,25.13
2018-03-22T09:40:24.343Z,22.77
2018-03-22T09:42:51.998Z,35.83
2018-03-22T09:45:19.642Z,29.50
2018-03-22T09:47:47.221Z,35.83
2018-03-22T09:50:14.882Z,22.20
2018-03-22T09:52:42.436Z,19.90
2018-03-22T09:55:09.988Z,26.57
2018-03-22T09:57:37.563Z,25.70
2018-03-22T10:00:05.111Z,19.37
2018-03-22T10:02:32.676Z,16.17
2018-03-22T10:05:00.365Z,20.70
2018-03-22T10:07:28.012Z,21.23
2018-03-22T10:09:55.563Z,20.50
2018-03-22T10:12:23.224Z,17.70
2018-03-22T10:14:50.763Z,18.10
2018-03-22T10:17:19.100Z,16.47
2018-03-22T10:19:46.671Z,18.80
2018-03-22T10:22:14.245Z,14.90
2018-03-22T10:24:42.589Z,17.23
2018-03-22T10:27:10.253Z,18.27
2018-03-22T10:29:37.817Z,16.40
2018-03-22T10:32:07.159Z,16.90
2018-03-22T10:34:36.278Z,17.40
2018-03-22T10:37:03.873Z,16.27
2018-03-22T10:39:31.439Z,15.17
2018-03-22T10:41:59.069Z,16.70
2018-03-22T10:44:27.346Z,17.43
2018-03-22T10:46:54.934Z,17.10
2018-03-22T10:49:22.494Z,18.23
2018-03-22T10:51:50.155Z,21.50
2018-03-22T10:54:17.730Z,18.73
2018-03-22T10:56:45.317Z,18.57
2018-03-22T10:59:13.629Z,18.77
2018-03-22T11:01:46.774Z,18.47
2018-03-22T11:04:15.086Z,15.80
2018-03-22T11:06:42.635Z,18.53
2018-03-22T11:09:10.962Z,16.10
2018-03-22T11:11:38.538Z,16.83
2018-03-22T11:14:06.186Z,16.37
2018-03-22T11:16:33.754Z,15.83
2018-03-22T11:19:01.419Z,15.13
2018-03-22T11:21:28.963Z,15.77
2018-03-22T11:23:56.511Z,15.67
2018-03-22T11:26:24.068Z,17.50
2018-03-22T11:28:51.631Z,16.87
2018-03-22T11:31:19.196Z,15.80
2018-03-22T11:33:46.858Z,18.40
2018-03-22T11:36:14.440Z,16.27
2018-03-22T11:38:42.011Z,16.57
2018-03-22T11:41:09.591Z,14.53
2018-03-22T11:43:37.147Z,17.00
2018-03-22T11:46:04.786Z,17.50
2018-03-22T11:48:32.355Z,17.80
2018-03-22T11:50:59.932Z,16.40
2018-03-22T11:53:27.563Z,15.50
2018-03-22T11:55:55.115Z,14.63
2018-03-22T11:58:22.693Z,16.53
2018-03-22T12:00:50.257Z,13.47
2018-03-22T12:03:17.811Z,16.80
2018-03-22T12:05:45.485Z,15.27
2018-03-22T12:08:13.066Z,16.40
2018-03-22T12:10:41.388Z,17.33
2018-03-22T12:13:08.986Z,17.00
2018-03-22T12:15:36.549Z,15.77
2018-03-22T12:18:04.105Z,17.33
2018-03-22T12:20:31.766Z,16.00
2018-03-22T12:22:59.327Z,15.43
2018-03-22T12:25:26.986Z,15.70
2018-03-22T12:27:54.637Z,15.20
2018-03-22T12:30:22.221Z,14.67
2018-03-22T12:32:49.781Z,15.07
2018-03-22T12:35:17.330Z,12.87
2018-03-22T12:37:44.893Z,10.30
2018-03-22T12:40:12.448Z,16.20
2018-03-22T12:42:40.011Z,15.30
2018-03-22T12:45:07.610Z,15.93
2018-03-22T12:47:35.948Z,15.00
2018-03-22T12:50:03.531Z,16.30
2018-03-22T12:52:31.185Z,15.00
2018-03-22T12:54:58.760Z,15.23
2018-03-22T12:57:26.311Z,15.17
2018-03-22T12:59:53.886Z,16.47
2018-03-22T13:02:21.515Z,14.93
2018-03-22T13:04:49.081Z,15.23
2018-03-22T13:07:16.666Z,16.30
2018-03-22T13:09:44.226Z,16.67
2018-03-22T13:12:13.290Z,16.10
2018-03-22T13:14:40.858Z,12.83
2018-03-22T13:17:08.433Z,17.67
2018-03-22T13:19:35.999Z,14.23
2018-03-22T13:22:03.577Z,16.90
2018-03-22T13:24:31.926Z,16.17
2018-03-22T13:27:01.160Z,14.93
2018-03-22T13:29:29.496Z,17.00
2018-03-22T13:31:57.034Z,17.97
2018-03-22T13:34:24.603Z,18.73
2018-03-22T13:36:52.180Z,16.77
2018-03-22T13:39:19.744Z,17.53
2018-03-22T13:41:47.301Z,18.37
2018-03-22T13:44:14.862Z,19.13
2018-03-22T13:46:42.418Z,19.60
2018-03-22T13:49:09.993Z,19.10
2018-03-22T13:51:37.568Z,22.70
2018-03-22T13:54:05.129Z,19.80
2018-03-22T13:56:32.681Z,19.90
2018-03-22T13:59:01.012Z,21.73
2018-03-22T14:01:28.600Z,13.23
2018-03-22T14:03:56.162Z,23.30
2018-03-22T14:06:23.808Z,20.37
2018-03-22T14:08:51.376Z,21.77
2018-03-22T14:11:18.939Z,22.47
2018-03-22T14:13:46.501Z,24.23
2018-03-22T14:16:14.054Z,22.03
2018-03-22T14:18:41.629Z,22.30
2018-03-22T14:21:09.216Z,23.10
2018-03-22T14:23:38.279Z,21.90
2018-03-22T14:26:05.826Z,14.63
2018-03-22T14:28:33.401Z,22.07
2018-03-22T14:31:00.947Z,16.10
2018-03-22T14:33:28.493Z,19.53
2018-03-22T14:35:56.083Z,25.73
2018-03-22T14:39:06.324Z,25.17
2018-03-22T14:41:33.920Z,26.70
2018-03-22T14:44:01.463Z,26.70
2018-03-22T14:46:29.124Z,30.40
2018-03-22T14:48:56.923Z,28.57
2018-03-22T14:51:25.505Z,28.47
2018-03-22T14:53:53.153Z,26.27
2018-03-22T14:56:20.806Z,34.40
2018-03-22T14:58:48.364Z,34.17
2018-03-22T15:01:15.913Z,36.30
2018-03-22T15:03:43.475Z,35.87
2018-03-22T15:06:11.047Z,38.07
2018-03-22T15:08:38.600Z,30.70
2018-03-22T15:11:06.183Z,37.33
2018-03-22T15:13:33.762Z,39.33
2018-03-22T15:16:02.086Z,33.67
2018-03-22T15:18:29.749Z,35.77
2018-03-22T15:20:57.343Z,36.93
2018-03-22T15:23:24.942Z,33.93
2018-03-22T15:25:53.294Z,34.40
2018-03-22T15:28:20.979Z,33.80
2018-03-22T15:30:48.527Z,33.77
2018-03-22T15:33:16.881Z,36.63
2018-03-22T15:35:44.456Z,37.60
2018-03-22T15:40:46.927Z,36.70
2018-03-22T15:43:14.527Z,36.87
2018-03-22T15:45:42.843Z,36.80
2018-03-22T15:48:10.444Z,38.33
2018-03-22T15:50:38.004Z,36.77
2018-03-22T15:53:05.664Z,33.53
2018-03-22T15:55:33.241Z,35.00
2018-03-22T15:58:00.794Z,35.03
2018-03-22T16:00:28.370Z,33.23
2018-03-22T16:02:56.004Z,35.83
2018-03-22T16:05:23.560Z,36.93
2018-03-22T16:07:51.116Z,40.83
2018-03-22T16:10:18.680Z,38.90
2018-03-22T16:12:46.238Z,34.70
2018-03-22T16:15:13.813Z,36.97
2018-03-22T16:17:41.550Z,31.50
2018-03-22T16:20:09.106Z,37.50
2018-03-22T16:22:36.648Z,36.60
2018-03-22T16:25:04.255Z,32.87
2018-03-22T16:27:31.809Z,36.47
2018-03-22T16:29:59.405Z,33.37
2018-03-22T16:32:27.863Z,32.63
2018-03-22T16:34:55.431Z,28.07
2018-03-22T16:37:22.987Z,33.93
2018-03-22T16:39:50.566Z,35.23
2018-03-22T16:42:18.885Z,33.37
2018-03-22T16:44:46.452Z,34.43
2018-03-22T16:47:14.148Z,33.47
2018-03-22T16:49:41.700Z,33.53
2018-03-22T16:52:09.267Z,32.93
2018-03-22T16:54:36.845Z,34.77
2018-03-22T16:57:04.499Z,31.63
2018-03-22T16:59:32.050Z,33.47
2018-03-22T17:01:59.632Z,32.90
2018-03-22T17:04:28.002Z,32.87
2018-03-22T17:06:55.648Z,30.77
2018-03-22T17:09:23.214Z,31.03
2018-03-22T17:11:50.752Z,30.20
2018-03-22T17:14:18.307Z,31.10
2018-03-22T17:16:45.891Z,31.50
2018-03-22T17:19:13.432Z,30.70
2018-03-22T17:21:40.980Z,31.77
2018-03-22T17:24:08.679Z,31.80
2018-03-22T17:26:36.226Z,31.03
2018-03-22T17:29:03.791Z,31.40
2018-03-22T17:31:31.444Z,31.80
2018-03-22T17:33:59.023Z,32.90
2018-03-22T17:36:26.581Z,29.63
2018-03-22T17:38:54.162Z,30.83
2018-03-22T17:41:21.724Z,32.23
2018-03-22T17:43:49.310Z,34.63
2018-03-22T17:46:16.888Z,35.20
2018-03-22T17:48:44.438Z,34.80
2018-03-22T17:51:12.029Z,35.77
2018-03-22T17:53:39.623Z,34.53
2018-03-22T17:56:07.169Z,38.13
2018-03-22T17:58:34.719Z,40.57
2018-03-22T18:01:02.282Z,38.40
2018-03-22T18:03:29.822Z,38.40
2018-03-22T18:05:57.377Z,39.57
2018-03-22T18:08:25.022Z,39.20
2018-03-22T18:10:52.545Z,37.87
2018-03-22T18:13:20.106Z,37.30
2018-03-22T18:15:47.678Z,37.90
2018-03-22T18:18:16.030Z,35.83
2018-03-22T18:20:43.581Z,37.53
2018-03-22T18:23:11.154Z,34.80
2018-03-22T18:25:38.703Z,36.90
2018-03-22T18:28:06.269Z,36.13
2018-03-22T18:30:33.840Z,34.80
2018-03-22T18:33:01.494Z,32.90
2018-03-22T18:35:29.063Z,33.07
2018-03-22T18:37:56.686Z,33.13
2018-03-22T18:40:24.276Z,36.10
2018-03-22T18:42:51.880Z,31.30
2018-03-22T18:45:19.459Z,33.30
2018-03-22T18:47:47.020Z,31.23
2018-03-22T18:50:14.610Z,32.30
2018-03-22T18:52:42.170Z,30.70
2018-03-22T18:55:09.737Z,34.67
2018-03-22T18:57:37.401Z,35.73
2018-03-22T19:00:05.056Z,37.97
2018-03-22T19:02:32.629Z,40.30
2018-03-22T19:05:01.694Z,40.17
2018-03-22T19:07:29.282Z,39.30
2018-03-22T19:09:56.833Z,41.70
2018-03-22T19:12:24.419Z,41.57
2018-03-22T19:14:52.047Z,45.10
2018-03-22T19:17:19.633Z,45.37
2018-03-22T19:19:47.302Z,42.47
2018-03-22T19:22:14.889Z,42.63
2018-03-22T19:24:42.505Z,45.63
2018-03-22T19:27:10.061Z,46.20
2018-03-22T19:29:37.672Z,49.10
2018-03-22T19:32:05.252Z,43.07
2018-03-22T19:34:32.818Z,43.17
2018-03-22T19:37:00.438Z,45.63
2018-03-22T19:39:28.750Z,46.87
2018-03-22T19:41:56.323Z,48.20
2018-03-22T19:44:23.903Z,46.03
2018-03-22T19:46:51.472Z,43.73
2018-03-22T19:49:19.042Z,49.57
2018-03-22T19:51:47.386Z,44.57
2018-03-22T19:54:14.935Z,47.73
2018-03-22T19:56:42.528Z,41.40
2018-03-22T19:59:10.170Z,46.73
2018-03-22T20:01:37.726Z,45.63
2018-03-22T20:04:05.423Z,46.00
2018-03-22T20:06:33.071Z,43.50
2018-03-22T20:09:00.666Z,42.63
2018-03-22T20:11:29.013Z,45.30
2018-03-22T20:13:56.570Z,40.37
2018-03-22T20:16:24.156Z,48.87
2018-03-22T20:18:52.510Z,45.60
2018-03-22T20:21:20.133Z,45.93
2018-03-22T20:23:47.689Z,48.37
2018-03-22T20:26:15.291Z,47.10
2018-03-22T20:28:42.906Z,45.97
2018-03-22T20:31:10.530Z,46.03
2018-03-22T20:33:38.081Z,49.80
2018-03-22T20:36:06.431Z,45.87
2018-03-22T20:38:33.978Z,46.97
2018-03-22T20:41:01.570Z,49.00
2018-03-22T20:43:29.173Z,50.57
2018-03-22T20:45:57.501Z,48.57
2018-03-22T20:48:25.075Z,51.87
2018-03-22T20:50:52.641Z,51.17
2018-03-22T20:53:20.374Z,51.77
2018-03-22T20:55:47.939Z,51.80
2018-03-22T20:58:15.709Z,51.47
2018-03-22T21:00:43.260Z,51.60
2018-03-22T21:03:10.857Z,51.63
2018-03-22T21:05:38.434Z,52.23
2018-03-22T21:08:06.774Z,48.80
2018-03-22T21:10:34.338Z,51.17
2018-03-22T21:13:01.902Z,48.80
2018-03-22T21:15:29.575Z,49.03
2018-03-22T21:17:57.232Z,48.57
2018-03-22T21:20:24.800Z,50.03
2018-03-22T21:22:52.374Z,60.77
2018-03-22T21:25:20.694Z,52.83
2018-03-22T21:27:48.276Z,50.40
2018-03-22T21:30:15.849Z,52.73
2018-03-22T21:32:43.419Z,47.67
2018-03-22T21:35:10.987Z,50.03
2018-03-22T21:37:38.521Z,48.93
2018-03-22T21:40:06.086Z,54.20
2018-03-22T21:42:33.668Z,46.90
2018-03-22T21:45:01.240Z,52.87
2018-03-22T21:47:31.520Z,54.63
2018-03-22T21:49:59.295Z,53.83
2018-03-22T21:52:39.112Z,53.93
2018-03-22T21:55:06.726Z,52.00
2018-03-22T21:57:34.463Z,56.83
2018-03-22T22:00:02.019Z,56.73
2018-03-22T22:02:29.691Z,59.13
2018-03-22T22:04:57.256Z,60.13
2018-03-22T22:07:24.802Z,60.63
2018-03-22T22:09:52.372Z,59.27
2018-03-22T22:12:19.932Z,65.90
2018-03-22T22:14:47.602Z,58.67
2018-03-22T22:17:15.262Z,58.37
2018-03-22T22:19:42.825Z,66.93
2018-03-22T22:22:10.483Z,64.33
2018-03-22T22:24:38.056Z,62.40
2018-03-22T22:27:05.607Z,59.60
2018-03-22T22:29:33.146Z,63.33
2018-03-22T22:32:00.811Z,61.83
2018-03-22T22:34:28.409Z,61.27
2018-03-22T22:36:55.967Z,61.10
2018-03-22T22:39:23.553Z,61.33
2018-03-22T22:41:51.865Z,52.37
2018-03-22T22:44:19.462Z,53.30
2018-03-22T22:46:47.025Z,53.03
2018-03-22T22:49:14.582Z,54.27
2018-03-22T22:51:42.131Z,49.40
2018-03-22T22:54:09.800Z,49.17
2018-03-22T22:56:37.354Z,46.07
2018-03-22T22:59:04.916Z,42.47
2018-03-22T23:01:32.590Z,38.63
2018-03-22T23:04:00.246Z,37.43
2018-03-22T23:06:27.892Z,35.20
2018-03-22T23:08:55.485Z,33.03
2018-03-22T23:11:23.035Z,31.43
2018-03-22T23:13:50.594Z,34.17
2018-03-22T23:16:18.183Z,33.37
2018-03-22T23:18:45.743Z,32.03
2018-03-22T23:21:13.303Z,34.60
2018-03-22T23:23:40.861Z,34.60
2018-03-22T23:26:08.433Z,35.30
2018-03-22T23:28:36.760Z,34.17
2018-03-22T23:31:04.340Z,38.00
2018-03-22T23:33:31.915Z,35.80
2018-03-22T23:35:59.478Z,37.47
2018-03-22T23:38:27.128Z,33.60
2018-03-22T23:40:54.670Z,31.73
2018-03-22T23:43:22.221Z,29.87
2018-03-22T23:45:49.788Z,28.50
2018-03-22T23:48:17.339Z,26.60
2018-03-22T23:50:44.878Z,24.80
2018-03-22T23:53:13.234Z,22.43
2018-03-22T23:55:40.787Z,22.47
2018-03-22T23:58:08.365Z,20.27
